Time;durP1;ratioP1;P1;durP2;ratioP2;P2;SDS_P1;SDS_P2;PMS_P1;PMS_P2;Temp;Humidity;BMP_temperature;BMP_pressure;BME280_temperature;BME280_humidity;BME280_pressure;Samples;Min_cycle;Max_cycle;Signal;HPM_P1;HPM_P2
2022/01/08 00:00:36;;;;;;;48.90;24.17;;;-3268.90;65.40;;;;;;5013527;28;20280;-81
2022/01/08 00:03:02;;;;;;;;;;;-3268.90;65.50;;;;;;5016318;28;20343;-81
2022/01/08 00:05:28;;;;;;;33.57;14.67;;;-3268.90;65.60;;;;;;5014513;28;19913;-79
2022/01/08 00:07:54;;;;;;;;;;;-3268.90;65.40;;;;;;5016292;28;20017;-81
2022/01/08 00:10:21;;;;;;;27.00;12.80;;;-3268.90;65.50;;;;;;5014884;28;19932;-81
2022/01/08 00:12:49;;;;;;;48.53;22.57;;;-3268.90;65.40;;;;;;5015443;28;20036;-80
2022/01/08 00:15:15;;;;;;;79.53;27.63;;;-3268.80;65.50;;;;;;5002586;28;20276;-80
2022/01/08 00:17:40;;;;;;;;;;;-3268.90;65.60;;;;;;5015447;28;20629;-81
2022/01/08 00:20:07;;;;;;;77.93;27.80;;;-3268.90;65.60;;;;;;5014810;28;19909;-80
2022/01/08 00:22:33;;;;;;;66.00;26.20;;;-3268.90;65.50;;;;;;5017802;28;20029;-81
2022/01/08 00:24:58;;;;;;;;;;;-3268.90;65.50;;;;;;5013874;28;20622;-81
2022/01/08 00:27:24;;;;;;;63.10;20.27;;;-3268.90;65.70;;;;;;5008321;28;19988;-81
2022/01/08 00:29:50;;;;;;;54.40;23.00;;;-3268.90;65.60;;;;;;5014492;28;20045;-81
2022/01/08 00:32:16;;;;;;;72.07;23.50;;;-3268.90;65.60;;;;;;5013087;28;20478;-80
2022/01/08 00:34:42;;;;;;;55.33;24.93;;;-3268.80;65.70;;;;;;5029329;28;20275;-80
2022/01/08 00:37:10;;;;;;;;;;;-3268.80;65.80;;;;;;5002393;28;20363;-81
2022/01/08 00:39:40;;;;;;;56.30;20.57;;;-3268.90;65.90;;;;;;5011491;28;19913;-81
2022/01/08 00:42:06;;;;;;;71.67;23.20;;;-3268.80;65.70;;;;;;5013989;28;20645;-80
2022/01/08 00:44:31;;;;;;;;;;;-3268.80;65.80;;;;;;5014065;28;20280;-80
2022/01/08 00:46:57;;;;;;;52.50;20.77;;;-3268.80;65.90;;;;;;5006327;28;19941;-81
2022/01/08 00:49:24;;;;;;;54.70;21.80;;;-3268.80;65.70;;;;;;5008918;28;20038;-81
2022/01/08 00:51:51;;;;;;;60.93;20.10;;;-3268.80;65.80;;;;;;5005644;28;20033;-80
2022/01/08 00:54:17;;;;;;;71.47;21.93;;;-3268.80;65.90;;;;;;5000817;28;20283;-80
2022/01/08 00:56:42;;;;;;;;;;;-3268.70;66.00;;;;;;5013131;28;20804;-81
2022/01/08 00:59:08;;;;;;;43.33;15.57;;;-3268.70;66.00;;;;;;5013547;28;19909;-81
2022/01/08 01:01:33;;;;;;;58.87;21.03;;;-3268.70;65.90;;;;;;5012417;28;20120;-80
2022/01/08 01:03:59;;;;;;;57.53;21.23;;;-3268.70;65.90;;;;;;5014475;28;20382;-79
2022/01/08 01:06:24;;;;;;;77.90;23.30;;;-3268.70;66.00;;;;;;5014111;28;20022;-79
2022/01/08 01:08:50;;;;;;;63.40;23.10;;;-3268.70;66.10;;;;;;5014733;28;20024;-81
2022/01/08 01:11:16;;;;;;;54.27;21.40;;;-3268.70;66.20;;;;;;5014199;28;20049;-80
2022/01/08 01:13:41;;;;;;;55.80;18.17;;;-3268.60;66.20;;;;;;5013038;28;20075;-80
2022/01/08 01:16:07;;;;;;;53.33;17.87;;;-3268.70;66.30;;;;;;5014036;28;20052;-79
2022/01/08 01:18:33;;;;;;;;;;;-3268.70;66.30;;;;;;5014436;28;20025;-81
2022/01/08 01:20:59;;;;;;;54.60;19.53;;;-3268.70;66.40;;;;;;5014181;28;19944;-82
2022/01/08 01:23:32;;;;;;;48.40;18.13;;;-3268.70;66.20;;;;;;5013525;28;20057;-80
2022/01/08 01:26:02;;;;;;;62.70;20.10;;;-3268.70;66.20;;;;;;5005772;28;20307;-81
2022/01/08 01:28:47;;;;;;;59.00;20.23;;;-3268.70;66.30;;;;;;5011652;28;20272;-80
2022/01/08 01:47:18;;;;;;;54.70;18.37;;;-3268.70;66.60;;;;;;5031732;28;20287;-80
2022/01/08 01:49:46;;;;;;;55.27;19.43;;;-3268.70;66.60;;;;;;5017225;28;20283;-81
2022/01/08 01:52:14;;;;;;;48.03;19.97;;;-3268.70;66.60;;;;;;5018289;28;20268;-81
2022/01/08 01:54:40;;;;;;;36.10;15.93;;;-3268.70;66.60;;;;;;5017995;28;20260;-81
2022/01/08 01:57:07;;;;;;;;;;;-3268.70;66.70;;;;;;5018893;28;20347;-81
2022/01/08 01:59:34;;;;;;;35.45;15.20;;;-3268.70;66.70;;;;;;5017776;28;19988;-80
2022/01/08 02:02:00;;;;;;;37.23;15.67;;;-3268.70;66.50;;;;;;5015316;28;20494;-80
2022/01/08 02:04:26;;;;;;;39.60;9.30;;;-3268.70;66.50;;;;;;5004725;28;20261;-80
2022/01/08 02:06:52;;;;;;;;;;;-3268.70;66.60;;;;;;5030070;28;20294;-80
2022/01/08 02:09:17;;;;;;;18.00;11.60;;;-3268.70;66.80;;;;;;5013802;28;19916;-82
2022/01/08 02:11:59;;;;;;;36.37;12.00;;;-3268.80;66.80;;;;;;5034031;28;20596;-79
2022/01/08 02:14:27;;;;;;;32.77;11.63;;;-3268.80;66.70;;;;;;5032717;28;20052;-81
2022/01/08 02:16:52;;;;;;;38.43;12.23;;;-3268.80;66.70;;;;;;5010498;28;20261;-80
2022/01/08 02:19:18;;;;;;;;;;;-3268.90;66.70;;;;;;5013082;28;20256;-81
2022/01/08 02:22:04;;;;;;;38.10;13.80;;;-3268.90;66.70;;;;;;5051136;28;19955;-81
2022/01/08 02:24:30;;;;;;;28.15;11.00;;;-3268.90;66.50;;;;;;5014702;28;20049;-80
2022/01/08 02:26:56;;;;;;;47.93;14.57;;;-3268.90;66.60;;;;;;5016758;28;20033;-79
2022/01/08 02:29:22;;;;;;;;;;;-3268.90;66.70;;;;;;5018051;28;20621;-80
2022/01/08 02:32:14;;;;;;;28.25;11.00;;;-3268.90;66.80;;;;;;5017426;28;19995;-80
2022/01/08 02:34:41;;;;;;;35.70;15.43;;;-3269.00;66.60;;;;;;5014245;28;20109;-80
2022/01/08 02:37:08;;;;;;;31.93;14.33;;;-3269.00;66.60;;;;;;5004475;28;20782;-79
2022/01/08 02:39:41;;;;;;;57.77;18.97;;;-3269.00;66.60;;;;;;5016697;28;20636;-80
2022/01/08 02:42:08;;;;;;;57.80;19.47;;;-3269.00;66.70;;;;;;5016955;28;20276;-81
2022/01/08 02:44:34;;;;;;;42.77;16.00;;;-3268.90;66.70;;;;;;5016857;28;20264;-81
2022/01/08 02:47:02;;;;;;;33.50;14.23;;;-3268.90;66.80;;;;;;5015630;28;20292;-81
2022/01/08 02:49:31;;;;;;;35.13;15.57;;;-3268.90;66.90;;;;;;5007792;28;20843;-81
2022/01/08 02:51:57;;;;;;;41.53;13.87;;;-3268.90;66.90;;;;;;5013306;28;20611;-81
2022/01/08 02:54:22;;;;;;;;;;;-3268.90;67.00;;;;;;5013460;28;20326;-80
2022/01/08 02:56:48;;;;;;;30.20;12.00;;;-3269.00;67.00;;;;;;5024887;28;19937;-81
2022/01/08 02:59:14;;;;;;;52.17;14.53;;;-3268.90;66.80;;;;;;5022413;28;20526;-81
2022/01/08 03:01:40;;;;;;;45.63;16.50;;;-3268.90;66.80;;;;;;5012176;28;20296;-80
2022/01/08 03:04:06;;;;;;;;;;;-3268.90;66.90;;;;;;5016973;28;20296;-81
2022/01/08 03:06:32;;;;;;;30.50;13.37;;;-3268.90;66.90;;;;;;5022767;28;19920;-81
2022/01/08 03:08:58;;;;;;;27.67;12.97;;;-3268.90;66.80;;;;;;5017290;28;20033;-81
2022/01/08 03:11:23;;;;;;;;;;;-3268.80;66.80;;;;;;5016777;28;20068;-80
2022/01/08 03:13:49;;;;;;;28.07;14.43;;;-3268.80;66.90;;;;;;5033992;28;19909;-81
2022/01/08 03:16:14;;;;;;;36.80;13.03;;;-3268.80;66.80;;;;;;5016353;28;20045;-81
2022/01/08 03:18:41;;;;;;;35.53;13.67;;;-3268.80;66.80;;;;;;5016718;28;20096;-80
2022/01/08 03:21:14;;;;;;;38.33;15.80;;;-3268.70;66.90;;;;;;5032326;28;20032;-78
2022/01/08 03:23:54;;;;;;;39.53;14.00;;;-3268.70;67.00;;;;;;5004325;28;20760;-81
2022/01/08 03:26:22;;;;;;;42.03;15.57;;;-3268.80;67.10;;;;;;5000704;28;20385;-79
2022/01/08 03:28:49;;;;;;;38.10;17.70;;;-3268.80;67.10;;;;;;5005084;28;20388;-81
2022/01/08 03:31:15;;;;;;;37.13;15.70;;;-3268.80;67.10;;;;;;5015384;28;20288;-81
2022/01/08 03:33:42;;;;;;;44.03;15.20;;;-3268.70;67.10;;;;;;5014325;28;20741;-80
2022/01/08 03:36:09;;;;;;;42.23;15.33;;;-3268.70;67.20;;;;;;5012693;28;20285;-81
2022/01/08 03:38:35;;;;;;;37.13;14.67;;;-3268.70;67.20;;;;;;5010477;28;20304;-81
2022/01/08 03:41:00;;;;;;;;;;;-3268.70;67.20;;;;;;5031088;28;20326;-80
2022/01/08 03:43:26;;;;;;;42.27;15.20;;;-3268.70;67.30;;;;;;5010940;28;19936;-80
2022/01/08 03:45:51;;;;;;;31.43;13.33;;;-3268.70;67.10;;;;;;5013747;28;20034;-79
2022/01/08 03:48:26;;;;;;;;;;;-3268.70;67.10;;;;;;5011854;28;20033;-81
2022/01/08 03:50:51;;;;;;;39.07;14.17;;;-3268.70;67.20;;;;;;5008468;28;19968;-80
2022/01/08 03:53:17;;;;;;;;;;;-3268.70;67.10;;;;;;5013441;28;20276;-80
2022/01/08 03:55:45;;;;;;;34.97;13.23;;;-3268.80;67.20;;;;;;5013315;28;19913;-80
2022/01/08 03:58:10;;;;;;;48.83;18.97;;;-3268.80;67.10;;;;;;4996024;28;20060;-80
2022/01/08 04:00:39;;;;;;;;;;;-3268.80;67.10;;;;;;5013122;28;20769;-80
2022/01/08 04:03:04;;;;;;;41.73;11.83;;;-3268.80;67.20;;;;;;5012662;28;19909;-81
2022/01/08 04:05:30;;;;;;;;;;;-3268.80;67.10;;;;;;4993984;28;20288;-80
2022/01/08 04:07:55;;;;;;;23.90;10.53;;;-3268.80;67.30;;;;;;5010417;28;20313;-81
2022/01/08 04:10:21;;;;;;;28.80;10.70;;;-3268.80;67.20;;;;;;4995188;28;20034;-81
2022/01/08 04:12:52;;;;;;;;;;;-3268.80;67.10;;;;;;4995970;28;20080;-81
2022/01/08 04:17:50;;;;;;;28.00;11.00;;;-3268.80;67.10;;;;;;5014209;28;20325;-80
2022/01/08 04:20:18;;;;;;;37.00;12.53;;;-3268.80;67.20;;;;;;5014032;28;20437;-80
2022/01/08 04:22:47;;;;;;;28.90;10.50;;;-3268.80;67.20;;;;;;4996081;28;20261;-81
2022/01/08 04:25:14;;;;;;;32.37;12.03;;;-3268.80;67.30;;;;;;4995476;28;20292;-80
2022/01/08 04:27:39;;;;;;;32.83;12.50;;;-3268.80;67.30;;;;;;4995477;28;20754;-80
2022/01/08 04:30:05;;;;;;;;;;;-3268.80;67.30;;;;;;4995644;28;20259;-81
2022/01/08 04:32:31;;;;;;;24.50;10.00;;;-3268.80;67.40;;;;;;5010560;28;20470;-80
2022/01/08 04:34:56;;;;;;;27.27;10.80;;;-3268.80;67.20;;;;;;4992572;28;20018;-81
2022/01/08 04:37:22;;;;;;;32.60;13.00;;;-3268.80;67.30;;;;;;4994842;28;20018;-81
2022/01/08 04:39:47;;;;;;;;;;;-3268.80;67.30;;;;;;4995283;28;20368;-81
2022/01/08 04:42:13;;;;;;;32.87;11.50;;;-3268.80;67.40;;;;;;4994378;28;19913;-81
2022/01/08 04:44:39;;;;;;;40.77;14.60;;;-3268.80;67.20;;;;;;5007872;28;20394;-81
2022/01/08 04:47:04;;;;;;;32.30;12.73;;;-3268.80;67.30;;;;;;5006426;28;20022;-80
2022/01/08 04:49:30;;;;;;;30.57;13.10;;;-3268.70;67.30;;;;;;5015048;28;20589;-80
2022/01/08 04:51:56;;;;;;;29.03;12.50;;;-3268.70;67.30;;;;;;5006447;28;20053;-80
2022/01/08 04:54:23;;;;;;;37.37;12.87;;;-3268.70;67.40;;;;;;5001905;28;20037;-81
2022/01/08 04:56:49;;;;;;;34.37;11.97;;;-3268.70;67.50;;;;;;5004583;28;20319;-81
2022/01/08 04:59:15;;;;;;;40.63;16.63;;;-3268.70;67.50;;;;;;4988877;28;20285;-80
2022/01/08 05:01:41;;;;;;;;;;;-3268.80;67.60;;;;;;4985164;28;20336;-80
2022/01/08 05:04:07;;;;;;;32.10;11.73;;;-3268.80;67.60;;;;;;4985994;28;19909;-80
2022/01/08 05:06:33;;;;;;;38.57;13.20;;;-3268.70;67.40;;;;;;5017051;28;20038;-81
2022/01/08 05:08:59;;;;;;;30.03;12.13;;;-3268.70;67.40;;;;;;4995632;28;20110;-80
2022/01/08 05:11:27;;;;;;;;;;;-3268.70;67.50;;;;;;5002811;28;20317;-79
2022/01/08 05:13:53;;;;;;;24.97;11.73;;;-3268.70;67.60;;;;;;5004753;28;19933;-80
2022/01/08 05:16:19;;;;;;;29.17;12.27;;;-3268.70;67.40;;;;;;5021250;28;20276;-81
2022/01/08 05:18:44;;;;;;;;;;;-3268.70;67.50;;;;;;5033113;28;20271;-80
2022/01/08 05:21:24;;;;;;;25.60;10.70;;;-3268.70;67.50;;;;;;5001035;28;19909;-80
2022/01/08 05:23:53;;;;;;;34.27;13.00;;;-3268.70;67.40;;;;;;5009052;28;20021;-81
2022/01/08 05:26:19;;;;;;;34.70;13.23;;;-3268.70;67.40;;;;;;5005290;28;20340;-80
2022/01/08 05:28:46;;;;;;;26.03;11.50;;;-3268.60;67.50;;;;;;5008169;28;20812;-86
2022/01/08 05:31:15;;;;;;;31.90;13.67;;;-3268.60;67.50;;;;;;5011273;28;20756;-86
2022/01/08 05:33:42;;;;;;;34.43;11.20;;;-3268.50;67.60;;;;;;4991052;28;20271;-85
2022/01/08 05:36:07;;;;;;;24.37;10.03;;;-3268.60;67.60;;;;;;5014563;28;20279;-89
2022/01/08 05:38:33;;;;;;;;;;;-3268.50;67.70;;;;;;5008034;28;20281;-89
2022/01/08 05:40:59;;;;;;;20.63;9.00;;;-3268.50;67.70;;;;;;5011981;28;20428;-90
2022/01/08 05:43:24;;;;;;;25.53;10.00;;;-3268.50;67.50;;;;;;5015174;28;20030;-89
2022/01/08 05:45:50;;;;;;;28.80;11.57;;;-3268.40;67.50;;;;;;5015677;28;20060;-88
2022/01/08 05:48:16;;;;;;;20.00;7.83;;;-3268.40;67.50;;;;;;5011997;28;20029;-88
2022/01/08 05:50:41;;;;;;;19.80;10.60;;;-3268.40;67.60;;;;;;5019766;28;20046;-89
2022/01/08 05:53:07;;;;;;;22.30;8.00;;;-3268.40;67.60;;;;;;5022124;28;20126;-89
2022/01/08 05:55:32;;;;;;;26.93;9.87;;;-3268.30;67.60;;;;;;5038790;28;20065;-90
2022/01/08 05:57:58;;;;;;;26.53;9.63;;;-3268.40;67.70;;;;;;5019762;28;20013;-90
2022/01/08 06:00:24;;;;;;;20.30;9.23;;;-3268.40;67.70;;;;;;5023496;28;20474;-87
2022/01/08 06:02:50;;;;;;;22.20;9.63;;;-3268.40;67.70;;;;;;5023103;28;20026;-88
2022/01/08 06:05:15;;;;;;;;;;;-3268.40;67.70;;;;;;5026266;28;20326;-90
2022/01/08 06:07:41;;;;;;;30.17;11.73;;;-3268.40;67.80;;;;;;5059159;28;19909;-87
2022/01/08 06:10:07;;;;;;;26.40;10.97;;;-3268.40;67.60;;;;;;5025995;28;20029;-88
2022/01/08 06:12:32;;;;;;;28.97;10.50;;;-3268.40;67.60;;;;;;5023068;28;20026;-89
2022/01/08 06:14:58;;;;;;;21.63;10.27;;;-3268.40;67.60;;;;;;5022639;28;20037;-89
2022/01/08 06:17:24;;;;;;;26.20;12.70;;;-3268.40;67.60;;;;;;5038737;28;20021;-88
2022/01/08 06:19:49;;;;;;;36.23;10.27;;;-3268.30;67.70;;;;;;5021214;28;20029;-90
2022/01/08 06:22:18;;;;;;;31.07;11.47;;;-3268.30;67.70;;;;;;5021449;28;20024;-89
2022/01/08 06:24:43;;;;;;;22.33;10.43;;;-3268.30;67.70;;;;;;5022964;28;20108;-90
2022/01/08 06:27:09;;;;;;;;;;;-3268.30;67.80;;;;;;5021834;28;20355;-88
2022/01/08 06:29:34;;;;;;;24.37;10.60;;;-3268.30;67.80;;;;;;5021346;28;19990;-90
2022/01/08 06:32:00;;;;;;;22.40;10.73;;;-3268.30;67.60;;;;;;5017758;28;20056;-90
2022/01/08 06:34:29;;;;;;;22.57;8.40;;;-3268.30;67.70;;;;;;5020774;28;20024;-89
2022/01/08 06:36:54;;;;;;;27.77;11.53;;;-3268.30;67.70;;;;;;5020072;28;20486;-89
2022/01/08 06:39:20;;;;;;;25.77;10.30;;;-3268.30;67.70;;;;;;5021717;28;20267;-88
2022/01/08 06:41:45;;;;;;;24.00;8.67;;;-3268.30;67.80;;;;;;5022704;28;20090;-89
2022/01/08 06:44:13;;;;;;;23.33;10.80;;;-3268.30;67.80;;;;;;5022000;28;20064;-87
2022/01/08 06:46:40;;;;;;;25.53;10.93;;;-3268.30;67.80;;;;;;5004104;28;20040;-89
2022/01/08 06:49:06;;;;;;;22.27;10.17;;;-3268.40;67.80;;;;;;5022791;28;20256;-91
2022/01/08 06:51:32;;;;;;;30.97;11.00;;;-3268.40;67.80;;;;;;5023996;28;20311;-90
2022/01/08 06:53:57;;;;;;;;;;;-3268.40;67.80;;;;;;5013487;28;20261;-90
2022/01/08 06:56:23;;;;;;;20.23;8.70;;;-3268.50;67.80;;;;;;5017875;28;19913;-91
2022/01/08 06:58:49;;;;;;;26.60;11.10;;;-3268.50;67.60;;;;;;5012474;28;20052;-90
2022/01/08 07:01:14;;;;;;;22.97;10.13;;;-3268.50;67.60;;;;;;5013829;28;20104;-89
2022/01/08 07:03:40;;;;;;;30.83;9.70;;;-3268.50;67.60;;;;;;5020419;28;20030;-91
2022/01/08 07:06:06;;;;;;;19.73;9.40;;;-3268.60;67.70;;;;;;5019932;28;20040;-89
2022/01/08 07:08:31;;;;;;;38.27;13.27;;;-3268.60;67.70;;;;;;5020988;28;20062;-90
2022/01/08 07:10:57;;;;;;;21.97;12.47;;;-3268.70;67.70;;;;;;5022578;28;20049;-90
2022/01/08 07:13:23;;;;;;;30.60;12.30;;;-3268.80;67.70;;;;;;5019300;28;20036;-90
2022/01/08 07:15:49;;;;;;;;;;;-3268.90;67.70;;;;;;5020949;28;20304;-89
2022/01/08 07:18:14;;;;;;;37.50;12.73;;;-3269.00;67.70;;;;;;5053913;28;19905;-89
2022/01/08 07:20:40;;;;;;;;;;;-3269.00;67.50;;;;;;5055769;28;20041;-90
2022/01/08 07:23:05;;;;;;;33.50;12.93;;;-3269.20;67.50;;;;;;5017528;28;19909;-89
2022/01/08 07:25:31;;;;;;;52.43;17.73;;;-3269.20;67.40;;;;;;5027076;28;20068;-89
2022/01/08 07:27:57;;;;;;;67.10;23.93;;;-3269.30;67.30;;;;;;5011225;28;20590;-89
2022/01/08 07:30:23;;;;;;;86.67;29.37;;;-3269.40;67.40;;;;;;5014548;28;20009;-88
2022/01/08 07:32:49;;;;;;;;;;;-3269.50;67.40;;;;;;5021340;28;20009;-86
2022/01/08 07:35:19;;;;;;;66.28;22.17;;;-3269.70;67.50;;;;;;5020366;28;19911;-86
2022/01/08 07:37:45;;;;;;;65.37;21.53;;;-3269.80;67.20;;;;;;5017221;28;20026;-87
2022/01/08 07:40:12;;;;;;;66.07;25.70;;;-3269.80;67.20;;;;;;5017018;28;20276;-83
2022/01/08 07:42:39;;;;;;;67.93;25.13;;;-3270.00;67.30;;;;;;5016297;28;20268;-86
2022/01/08 07:45:08;;;;;;;60.43;24.10;;;-3270.10;67.30;;;;;;5031343;28;20284;-89
2022/01/08 07:47:35;;;;;;;57.03;22.03;;;-3270.20;67.30;;;;;;5018527;28;20029;-90
2022/01/08 07:50:01;;;;;;;56.93;20.83;;;-3270.40;67.30;;;;;;5016404;28;20280;-86
2022/01/08 07:52:27;;;;;;;72.10;27.43;;;-3270.50;67.30;;;;;;5018081;28;20416;-87
2022/01/08 07:54:52;;;;;;;;;;;-3270.70;67.30;;;;;;5033097;28;20268;-87
2022/01/08 07:57:18;;;;;;;61.33;24.70;;;-3270.80;67.30;;;;;;5006814;28;19968;-87
2022/01/08 07:59:43;;;;;;;;;;;-3271.00;67.10;;;;;;5044075;28;20041;-87
2022/01/08 08:02:10;;;;;;;67.50;28.77;;;-3271.10;67.10;;;;;;5009758;28;19991;-88
2022/01/08 08:04:35;;;;;;;73.10;28.43;;;-3271.30;66.80;;;;;;5014964;28;20029;-85
2022/01/08 08:07:01;;;;;;;75.50;30.70;;;-3271.40;66.90;;;;;;5015863;28;20474;-86
2022/01/08 08:09:27;;;;;;;;;;;-3271.50;67.00;;;;;;5012093;28;20024;-86
2022/01/08 08:11:52;;;;;;;63.60;26.73;;;-3271.70;67.00;;;;;;5015237;28;19920;-86
2022/01/08 08:14:18;;;;;;;;;;;-3271.90;66.80;;;;;;5029845;28;20030;-85
2022/01/08 08:16:43;;;;;;;67.70;25.17;;;-3272.00;66.90;;;;;;5011004;28;20388;-86
2022/01/08 08:19:09;;;;;;;;;;;-3272.20;66.80;;;;;;5020300;28;20034;-85
2022/01/08 08:21:35;;;;;;;31.40;15.47;;;-3272.40;66.80;;;;;;5021692;28;19924;-87
2022/01/08 08:24:03;;;;;;;;;;;-3272.60;66.70;;;;;;5018067;28;20053;-88
2022/01/08 08:26:29;;;;;;;95.77;31.70;;;-3272.70;66.80;;;;;;5017760;28;19913;-87
2022/01/08 08:28:54;;;;;;;;;;;-3272.80;66.60;;;;;;5018912;28;20048;-87
2022/01/08 08:31:21;;;;;;;82.63;33.33;;;-3273.00;66.80;;;;;;5016746;28;19909;-88
2022/01/08 08:33:46;;;;;;;92.60;32.67;;;-3273.10;66.70;;;;;;5018075;28;20082;-87
2022/01/08 08:36:15;;;;;;;;;;;-3273.30;66.80;;;;;;5037654;28;20130;-92
2022/01/08 08:38:40;;;;;;;104.13;31.37;;;-3273.50;66.90;;;;;;5020169;28;19909;-85
2022/01/08 08:41:06;;;;;;;;;;;-3273.70;66.70;;;;;;5017328;28;20033;-87
2022/01/08 08:43:31;;;;;;;115.70;38.17;;;-3273.80;66.70;;;;;;5016907;28;20285;-85
2022/01/08 08:45:57;;;;;;;;;;;-3274.00;66.50;;;;;;5034786;28;20025;-85
2022/01/08 08:48:23;;;;;;;116.63;39.67;;;-3274.20;66.60;;;;;;5016873;28;19909;-85
2022/01/08 08:50:48;;;;;;;119.78;41.10;;;-3274.40;66.40;;;;;;5016931;28;20490;-86
2022/01/08 08:53:14;;;;;;;;;;;-3274.50;66.40;;;;;;5016968;28;20034;-86
2022/01/08 08:55:39;;;;;;;118.93;41.93;;;-3274.70;66.40;;;;;;5016547;28;19952;-85
2022/01/08 08:58:05;;;;;;;;;;;-3274.90;66.10;;;;;;5015881;28;20031;-85
2022/01/08 09:00:33;;;;;;;109.87;38.17;;;-3275.10;66.20;;;;;;5016492;28;19909;-86
2022/01/08 09:03:01;;;;;;;117.47;41.57;;;-3275.20;65.90;;;;;;5012481;28;20037;-92
2022/01/08 09:05:27;;;;;;;136.93;47.83;;;-3275.40;66.00;;;;;;5019245;28;20025;-90
2022/01/08 09:07:52;;;;;;;;;;;-3275.50;66.00;;;;;;5018151;28;20044;-88
2022/01/08 09:10:25;;;;;;;123.87;43.27;;;-3275.70;66.10;;;;;;5017425;28;19916;-87
2022/01/08 09:12:52;;;;;;;113.70;41.53;;;-3275.80;65.70;;;;;;5016872;28;20045;-88
2022/01/08 09:15:23;;;;;;;119.03;42.83;;;-3276.00;65.80;;;;;;5018204;28;20382;-87
2022/01/08 09:17:51;;;;;;;125.37;44.03;;;-3276.10;65.80;;;;;;5018513;28;20025;-86
2022/01/08 09:20:16;;;;;;;122.67;42.73;;;-3276.20;65.90;;;;;;5021440;28;20041;-87
2022/01/08 09:22:42;;;;;;;;;;;-3276.40;65.90;;;;;;5021061;28;20038;-86
2022/01/08 09:25:09;;;;;;;106.43;37.60;;;-3276.60;65.80;;;;;;5018437;28;19909;-86
2022/01/08 09:27:35;;;;;;;111.03;39.40;;;-3276.70;65.40;;;;;;5019592;28;20029;-87
2022/01/08 09:30:01;;;;;;;;;;;0.00;65.20;;;;;;5019480;28;20036;-87
2022/01/08 09:32:27;;;;;;;86.23;34.63;;;0.20;65.10;;;;;;5020667;28;19997;-87
2022/01/08 09:34:52;;;;;;;;;;;0.30;64.70;;;;;;5020203;28;20025;-86
2022/01/08 09:37:20;;;;;;;91.90;35.57;;;0.40;64.60;;;;;;5018965;28;19909;-87
2022/01/08 09:39:46;;;;;;;58.83;24.33;;;0.60;64.40;;;;;;5036642;28;20025;-87
2022/01/08 09:42:12;;;;;;;;;;;0.70;64.10;;;;;;5018538;28;20025;-88
2022/01/08 09:44:39;;;;;;;49.20;17.33;;;0.80;64.00;;;;;;5018119;28;19917;-88
2022/01/08 09:47:08;;;;;;;51.87;18.47;;;0.90;63.50;;;;;;5011649;28;20030;-87
2022/01/08 09:49:34;;;;;;;90.77;31.73;;;1.00;62.90;;;;;;5018653;28;20049;-87
2022/01/08 09:52:00;;;;;;;;;;;1.10;62.40;;;;;;5016755;28;20021;-87
2022/01/08 09:54:27;;;;;;;61.60;23.17;;;1.20;62.30;;;;;;5018665;28;20357;-88
2022/01/08 09:56:53;;;;;;;212.60;70.73;;;1.40;61.80;;;;;;5015077;28;20505;-88
2022/01/08 09:59:19;;;;;;;112.73;38.57;;;1.40;61.40;;;;;;5019214;28;20057;-88
2022/01/08 10:01:53;;;;;;;49.17;20.70;;;1.60;60.90;;;;;;5018290;28;20030;-88
2022/01/08 10:04:24;;;;;;;58.63;24.57;;;1.60;60.20;;;;;;5019127;28;20121;-87
2022/01/08 10:06:50;;;;;;;105.97;53.93;;;1.70;59.80;;;;;;5019794;28;20434;-91
2022/01/08 10:09:15;;;;;;;54.22;25.40;;;1.80;59.60;;;;;;5015030;28;20026;-90
2022/01/08 10:11:49;;;;;;;49.00;23.27;;;1.80;59.30;;;;;;5024442;28;20014;-90
2022/01/08 10:14:27;;;;;;;58.17;25.43;;;1.90;59.00;;;;;;5012515;28;20083;-89
2022/01/08 10:19:37;;;;;;;46.57;22.50;;;2.10;58.60;;;;;;5027945;28;20060;-91
2022/01/08 10:22:15;;;;;;;45.28;21.17;;;2.10;58.30;;;;;;5019845;28;20097;-90
2022/01/08 10:24:40;;;;;;;53.17;20.93;;;2.20;57.90;;;;;;5021356;28;20032;-89
2022/01/08 10:27:07;;;;;;;41.72;17.08;;;2.30;58.00;;;;;;5022070;28;20026;-90
2022/01/08 10:29:34;;;;;;;47.10;16.50;;;2.40;57.80;;;;;;5019775;28;20026;-90
2022/01/08 10:32:00;;;;;;;45.90;18.33;;;2.40;57.50;;;;;;5019626;28;20022;-91
2022/01/08 10:34:28;;;;;;;41.00;17.77;;;2.60;57.40;;;;;;5019717;28;20142;-91
2022/01/08 10:37:06;;;;;;;38.70;17.70;;;2.60;57.20;;;;;;5014004;28;20025;-91
2022/01/08 10:39:54;;;;;;;48.40;23.27;;;2.80;56.90;;;;;;5016745;28;20030;-92
2022/01/08 10:42:20;;;;;;;46.03;19.60;;;2.80;56.60;;;;;;5019198;28;20040;-91
2022/01/08 10:44:48;;;;;;;51.90;17.85;;;2.90;56.40;;;;;;5016228;28;20029;-90
2022/01/08 10:47:19;;;;;;;38.60;17.30;;;2.90;55.90;;;;;;5033829;28;20049;-91
2022/01/08 10:49:47;;;;;;;45.23;18.33;;;2.80;55.80;;;;;;5020875;28;20103;-92
2022/01/08 10:52:19;;;;;;;42.17;16.87;;;2.90;55.90;;;;;;5020809;28;20044;-91
2022/01/08 10:54:54;;;;;;;51.43;19.27;;;2.90;55.60;;;;;;5006597;28;20451;-91
2022/01/08 10:57:20;;;;;;;41.10;18.30;;;3.00;55.40;;;;;;5012183;28;20040;-90
2022/01/08 10:59:46;;;;;;;46.80;19.88;;;3.00;55.30;;;;;;5017230;28;20069;-91
2022/01/08 11:02:15;;;;;;;51.22;20.05;;;3.10;55.30;;;;;;5016916;28;20009;-91
2022/01/08 11:04:45;;;;;;;41.90;19.30;;;3.20;55.20;;;;;;5012068;28;20049;-90
2022/01/08 11:07:20;;;;;;;52.00;19.90;;;3.30;55.20;;;;;;5014830;28;20132;-89
2022/01/08 11:09:47;;;;;;;49.50;19.17;;;3.40;55.30;;;;;;5011574;28;20083;-92
2022/01/08 11:12:19;;;;;;;49.43;19.73;;;3.50;55.00;;;;;;5013236;28;20053;-88
2022/01/08 11:17:38;;;;;;;43.93;17.53;;;3.80;54.60;;;;;;5018467;28;20033;-88
2022/01/08 11:20:10;;;;;;;43.27;19.37;;;3.90;54.20;;;;;;5010927;28;20485;-92
2022/01/08 11:22:48;;;;;;;50.37;20.63;;;4.00;53.80;;;;;;5009157;28;20022;-90
2022/01/08 11:25:18;;;;;;;53.03;20.00;;;4.10;53.80;;;;;;5012497;28;20022;-91
2022/01/08 11:27:52;;;;;;;48.20;21.43;;;4.10;53.90;;;;;;5007278;28;20046;-89
2022/01/08 11:30:19;;;;;;;40.10;17.17;;;4.10;53.80;;;;;;5004048;28;20030;-91
2022/01/08 11:32:47;;;;;;;40.77;15.90;;;4.10;53.60;;;;;;5019498;28;20059;-91
2022/01/08 11:35:14;;;;;;;37.67;15.93;;;4.20;53.50;;;;;;5021571;28;20029;-91
2022/01/08 11:37:46;;;;;;;37.67;16.30;;;4.20;53.40;;;;;;5021627;28;20029;-92
2022/01/08 11:40:13;;;;;;;46.27;18.30;;;4.30;53.30;;;;;;5021342;28;20487;-90
2022/01/08 11:42:39;;;;;;;180.37;70.60;;;4.40;53.00;;;;;;5018690;28;20044;-91
2022/01/08 11:45:07;;;;;;;;;;;4.40;52.80;;;;;;5019265;28;20026;-91
2022/01/08 11:47:36;;;;;;;78.00;32.67;;;4.40;52.70;;;;;;5021589;28;20437;-90
2022/01/08 11:50:04;;;;;;;46.03;19.10;;;4.40;52.50;;;;;;5022952;28;20096;-91
2022/01/08 11:52:30;;;;;;;112.33;47.13;;;4.30;52.50;;;;;;5015296;28;20419;-91
2022/01/08 11:54:56;;;;;;;57.85;22.40;;;4.30;52.50;;;;;;5020272;28;20113;-90
2022/01/08 11:57:27;;;;;;;43.63;18.40;;;4.40;52.40;;;;;;5019417;28;20032;-91
2022/01/08 11:59:59;;;;;;;61.73;22.13;;;4.40;52.20;;;;;;5033739;28;20034;-90
2022/01/08 12:02:35;;;;;;;76.70;30.73;;;4.50;52.20;;;;;;5015124;28;20036;-91
2022/01/08 12:05:01;;;;;;;61.92;23.80;;;4.50;51.90;;;;;;5021219;28;20493;-89
2022/01/08 12:07:32;;;;;;;;;;;4.60;51.90;;;;;;5037358;28;20474;-91
2022/01/08 12:10:18;;;;;;;57.27;21.70;;;4.60;52.00;;;;;;5018888;28;19909;-90
2022/01/08 12:12:53;;;;;;;57.53;21.47;;;4.60;51.70;;;;;;5018347;28;20044;-90
2022/01/08 12:15:42;;;;;;;52.90;21.33;;;4.50;51.90;;;;;;5020883;28;20025;-90
2022/01/08 12:18:09;;;;;;;55.77;22.67;;;4.40;51.70;;;;;;5010774;28;20079;-90
2022/01/08 12:20:50;;;;;;;46.57;19.40;;;4.40;52.00;;;;;;5019850;28;20041;-91
2022/01/08 12:23:31;;;;;;;45.17;19.03;;;4.30;51.80;;;;;;5010385;28;20040;-90
2022/01/08 12:26:28;;;;;;;71.07;28.00;;;4.30;51.90;;;;;;5019076;28;20030;-91
2022/01/08 12:28:59;;;;;;;55.30;23.73;;;4.30;51.70;;;;;;5016169;28;20033;-90
2022/01/08 12:31:37;;;;;;;74.27;30.53;;;4.30;51.60;;;;;;5013304;28;20418;-91
2022/01/08 12:34:31;;;;;;;51.07;22.47;;;4.20;51.50;;;;;;5018901;28;20034;-90
2022/01/08 12:37:11;;;;;;;67.43;25.53;;;4.10;51.40;;;;;;5012060;28;20033;-91
2022/01/08 12:39:47;;;;;;;46.43;19.20;;;4.10;51.30;;;;;;5013567;28;20390;-90
2022/01/08 12:42:27;;;;;;;56.08;21.48;;;4.00;51.40;;;;;;5014709;28;20087;-90
2022/01/08 12:45:29;;;;;;;85.53;31.37;;;4.00;51.40;;;;;;5020032;28;20036;-89
2022/01/08 12:48:04;;;;;;;76.87;28.73;;;4.00;51.40;;;;;;5019756;28;20033;-89
2022/01/08 12:50:51;;;;;;;64.47;27.27;;;3.90;51.50;;;;;;5018558;28;20053;-90
2022/01/08 12:53:28;;;;;;;58.17;25.38;;;3.90;51.50;;;;;;5016321;28;20498;-89